Terminal Aerodrome Forecast
Issued by NWS

Home | Current Version | Previous Version | Text Only | Print | Product List | Glossary On
Versions: 1 2 3 4 5 6 7 8 9 10 11 12 13
307
FTUS45 KTFX 300520
TAFHVR
TAF
KHVR 300520Z 3006/3106 23009KT P6SM SCT060 OVC090
     FM301800 30008KT P6SM BKN070
     FM310000 33015KT P6SM BKN050=

USA.gov is the U.S. government's official web portal to all federal, state and local government web resources and services.